Time;durP1;ratioP1;P1;durP2;ratioP2;P2;SDS_P1;SDS_P2;PMS_P1;PMS_P2;Temp;Humidity;BMP_temperature;BMP_pressure;BME280_temperature;BME280_humidity;BME280_pressure;Samples;Min_cycle;Max_cycle;Signal;HPM_P1;HPM_P2
2023/04/18 00:01:33;;;;;;;17.97;10.17;;;;;;;11.96;95.20;94274.06;5011633;28;20178;-75
2023/04/18 00:04:01;;;;;;;12.50;8.10;;;;;;;12.04;94.88;94269.22;5011613;28;20180;-75
2023/04/18 00:06:28;;;;;;;12.40;8.70;;;;;;;12.12;94.73;94273.31;5011580;28;20176;-75
2023/04/18 00:08:54;;;;;;;15.27;9.37;;;;;;;12.20;94.42;94270.31;5011637;28;20601;-75
2023/04/18 00:11:20;;;;;;;15.83;8.77;;;;;;;12.24;94.46;94274.09;5011261;28;20199;-75
2023/04/18 00:13:46;;;;;;;12.03;8.20;;;;;;;12.29;94.24;94276.81;5011379;28;20184;-75
2023/04/18 00:16:12;;;;;;;18.00;9.40;;;;;;;12.30;93.99;94273.13;5011414;28;20171;-75
2023/04/18 00:18:38;;;;;;;14.77;9.53;;;;;;;12.34;93.78;94276.13;5026498;28;20250;-75
2023/04/18 00:21:05;;;;;;;13.03;9.47;;;;;;;12.35;93.67;94281.16;5011459;28;20195;-75
2023/04/18 00:23:32;;;;;;;10.73;7.57;;;;;;;12.25;93.41;94259.06;5011178;28;20176;-75
2023/04/18 00:25:57;;;;;;;10.70;6.93;;;;;;;12.40;93.13;94277.81;5011310;28;20654;-75
2023/04/18 00:28:23;;;;;;;10.13;6.70;;;;;;;12.38;93.07;94277.22;5011386;28;20172;-75
2023/04/18 00:30:49;;;;;;;7.67;6.20;;;;;;;12.38;92.90;94278.03;5011549;28;20204;-75
2023/04/18 00:33:15;;;;;;;12.43;7.40;;;;;;;12.35;93.07;94275.88;5011215;28;20622;-75
2023/04/18 00:35:40;;;;;;;10.13;6.97;;;;;;;12.33;93.07;94266.59;5011604;28;20223;-75
2023/04/18 00:38:05;;;;;;;10.17;7.87;;;;;;;12.38;92.98;94274.59;5010961;28;20181;-75
2023/04/18 00:40:31;;;;;;;12.13;8.07;;;;;;;12.35;93.19;94275.88;5010867;28;20161;-75
2023/04/18 00:42:56;;;;;;;14.60;9.07;;;;;;;12.20;93.63;94251.81;5011296;28;20204;-75
2023/04/18 00:45:22;;;;;;;14.67;9.53;;;;;;;12.29;93.80;94268.88;5011356;28;20176;-75
2023/04/18 00:47:47;;;;;;;22.47;14.93;;;;;;;12.28;94.20;94269.16;5011073;28;20207;-75
2023/04/18 00:50:13;;;;;;;34.23;22.00;;;;;;;12.27;94.48;94263.06;5010943;28;20198;-75
2023/04/18 00:52:39;;;;;;;39.60;24.27;;;;;;;12.27;94.95;94265.72;5011043;28;20183;-75
2023/04/18 00:55:06;;;;;;;40.60;25.23;;;;;;;12.27;94.85;94260.44;5011686;28;20195;-75
2023/04/18 00:57:32;;;;;;;44.23;27.47;;;;;;;12.10;94.81;94238.47;5014699;28;20177;-75
2023/04/18 01:00:08;;;;;;;53.67;30.27;;;;;;;12.18;94.68;94253.94;5014965;28;20161;-75
2023/04/18 01:02:34;;;;;;;40.07;25.90;;;;;;;12.18;94.99;94258.41;5015139;28;20156;-75
2023/04/18 01:05:00;;;;;;;48.33;29.70;;;;;;;12.14;95.58;94257.25;5015020;28;20161;-75
2023/04/18 01:07:26;;;;;;;50.37;32.13;;;;;;;12.14;95.54;94249.34;5014831;28;20183;-75
2023/04/18 01:09:52;;;;;;;59.20;33.67;;;;;;;12.17;95.34;94254.97;5015047;28;20165;-75
2023/04/18 01:12:18;;;;;;;50.00;31.50;;;;;;;12.18;95.58;94253.13;5014894;28;20303;-75
2023/04/18 01:14:43;;;;;;;59.58;35.60;;;;;;;12.05;95.42;94228.59;5014083;28;20537;-75
2023/04/18 01:17:09;;;;;;;49.33;30.57;;;;;;;12.16;95.35;94250.72;5014570;28;20654;-75
2023/04/18 01:19:38;;;;;;;51.93;29.60;;;;;;;12.16;95.57;94245.44;5014745;28;20636;-75
2023/04/18 01:22:05;;;;;;;45.37;27.27;;;;;;;12.17;95.40;94247.03;5014483;28;20580;-75
2023/04/18 01:24:31;;;;;;;42.13;26.30;;;;;;;12.17;95.49;94248.88;5014552;28;20184;-75
2023/04/18 01:26:57;;;;;;;44.13;27.00;;;;;;;12.18;95.35;94253.94;5014428;28;20258;-75
2023/04/18 01:29:26;;;;;;;33.30;18.20;;;;;;;12.18;95.48;94253.13;5014382;28;20172;-75
2023/04/18 01:31:51;;;;;;;22.43;15.00;;;;;;;12.17;95.32;94244.41;5014346;28;20216;-75
2023/04/18 01:34:17;;;;;;;16.00;9.83;;;;;;;12.13;95.01;94245.09;5014311;28;20165;-75
2023/04/18 01:36:43;;;;;;;15.23;9.37;;;;;;;12.09;95.33;94255.34;5014016;28;20179;-75
2023/04/18 01:39:09;;;;;;;15.37;10.03;;;;;;;12.07;95.14;94246.84;5013216;28;20228;-75
2023/04/18 01:41:34;;;;;;;10.77;7.87;;;;;;;11.87;95.05;94226.13;5013665;28;20223;-75
2023/04/18 01:44:00;;;;;;;10.83;8.10;;;;;;;12.03;95.47;94250.97;5013832;28;20168;-75
2023/04/18 01:46:26;;;;;;;12.27;7.97;;;;;;;11.97;95.34;94244.81;5014304;28;20195;-75
2023/04/18 01:48:52;;;;;;;11.27;7.13;;;;;;;11.99;95.41;94242.75;5014078;28;20219;-75
2023/04/18 01:51:17;;;;;;;11.30;6.70;;;;;;;12.00;95.11;94241.72;5013942;28;20699;-75
2023/04/18 01:53:42;;;;;;;7.53;5.80;;;;;;;11.89;94.30;94228.56;5014047;28;20156;-75
2023/04/18 01:56:09;;;;;;;9.67;6.83;;;;;;;11.96;94.84;94240.56;5013190;28;20473;-75
2023/04/18 01:58:35;;;;;;;8.10;7.10;;;;;;;11.88;94.86;94222.47;5013893;28;20940;-75
2023/04/18 02:01:00;;;;;;;7.93;5.83;;;;;;;11.92;94.63;94230.72;5013919;28;20280;-75
2023/04/18 02:03:26;;;;;;;10.87;6.87;;;;;;;12.00;94.54;94235.63;5013914;28;20295;-75
2023/04/18 02:05:51;;;;;;;9.37;6.60;;;;;;;12.05;94.98;94233.09;5014099;28;20903;-75
2023/04/18 02:08:17;;;;;;;13.77;8.10;;;;;;;12.06;95.05;94234.69;5013947;28;20172;-75
2023/04/18 02:10:42;;;;;;;9.60;6.63;;;;;;;12.05;95.49;94236.53;5013585;28;20192;-75
2023/04/18 02:13:08;;;;;;;7.97;6.33;;;;;;;12.09;95.71;94247.41;5013723;28;20181;-75
2023/04/18 02:15:33;;;;;;;10.47;6.80;;;;;;;12.11;94.92;94247.19;5028864;28;20610;-75
2023/04/18 02:17:59;;;;;;;9.87;7.63;;;;;;;12.08;94.50;94248.44;5012513;28;20498;-74
2023/04/18 02:20:25;;;;;;;11.27;6.80;;;;;;;12.05;94.59;94247.06;5013376;28;20181;-75
2023/04/18 02:22:51;;;;;;;10.33;7.17;;;;;;;12.04;94.74;94249.94;5013349;28;20230;-75
2023/04/18 02:25:17;;;;;;;11.23;7.93;;;;;;;11.95;94.26;94248.69;5012938;28;20415;-75
2023/04/18 02:27:43;;;;;;;9.90;7.82;;;;;;;11.85;94.66;94249.31;5012862;28;20418;-75
2023/04/18 02:30:09;;;;;;;10.73;7.07;;;;;;;11.78;95.07;94238.09;5013359;28;20640;-74
2023/04/18 02:32:34;;;;;;;11.80;9.10;;;;;;;11.96;94.43;94247.66;5011696;28;20420;-75
2023/04/18 02:35:00;;;;;;;14.07;10.07;;;;;;;11.80;94.05;94230.75;5012117;28;20842;-75
2023/04/18 02:37:25;;;;;;;15.15;10.10;;;;;;;11.83;94.58;94258.50;5011774;28;20880;-75
2023/04/18 02:39:51;;;;;;;12.23;8.33;;;;;;;11.85;94.69;94257.22;5013005;28;20277;-75
2023/04/18 02:42:16;;;;;;;12.03;7.73;;;;;;;11.81;95.05;94260.56;5013230;28;20444;-75
2023/04/18 02:44:41;;;;;;;13.73;9.87;;;;;;;11.86;95.17;94264.09;5011940;28;20426;-74
2023/04/18 02:47:07;;;;;;;12.37;9.27;;;;;;;11.88;95.14;94262.03;5013118;28;20191;-75
2023/04/18 02:49:32;;;;;;;12.07;8.47;;;;;;;11.91;95.08;94258.94;5013204;28;20211;-75
2023/04/18 02:51:57;;;;;;;12.27;8.43;;;;;;;11.93;95.15;94256.88;5012956;28;20192;-75
2023/04/18 02:54:23;;;;;;;11.90;8.40;;;;;;;11.88;94.88;94262.03;5012680;28;20176;-75
2023/04/18 02:56:52;;;;;;;11.73;8.40;;;;;;;11.85;95.78;94262.47;5012040;28;20599;-75
2023/04/18 02:59:17;;;;;;;14.67;9.77;;;;;;;11.88;96.16;94254.13;5012721;28;20196;-75
2023/04/18 03:01:42;;;;;;;17.43;11.97;;;;;;;11.89;96.86;94255.72;5011193;28;20464;-75
2023/04/18 03:04:08;;;;;;;15.93;10.30;;;;;;;11.95;95.83;94254.78;5012845;28;20218;-75
2023/04/18 03:06:33;;;;;;;15.80;9.83;;;;;;;11.96;95.76;94255.59;5012714;28;20168;-75
2023/04/18 03:08:59;;;;;;;12.73;9.07;;;;;;;11.94;95.70;94247.09;5012748;28;20707;-75
2023/04/18 03:11:24;;;;;;;13.77;9.80;;;;;;;11.99;95.82;94260.41;5009751;28;20243;-75
2023/04/18 03:13:49;;;;;;;16.40;11.97;;;;;;;12.05;95.61;94264.75;4992395;28;20443;-75
2023/04/18 03:16:15;;;;;;;15.48;12.35;;;;;;;11.83;95.68;94240.84;5009662;28;20411;-75
2023/04/18 03:18:40;;;;;;;16.55;12.02;;;;;;;12.07;95.60;94262.69;5011159;28;20422;-75
2023/04/18 03:21:06;;;;;;;14.53;10.73;;;;;;;12.01;95.76;94280.25;5008660;28;20967;-75
2023/04/18 03:23:31;;;;;;;12.53;9.83;;;;;;;12.05;95.73;94273.44;5012342;28;20156;-75
2023/04/18 03:25:57;;;;;;;16.20;11.80;;;;;;;11.97;95.52;94275.66;5011306;28;20784;-75
2023/04/18 03:28:22;;;;;;;14.87;10.93;;;;;;;12.00;95.68;94291.84;5012116;28;20176;-75
2023/04/18 03:30:48;;;;;;;14.40;10.37;;;;;;;11.97;96.11;94279.09;5011873;28;20284;-74
2023/04/18 03:33:15;;;;;;;15.43;10.57;;;;;;;12.08;95.82;94293.28;5012081;28;20165;-75
2023/04/18 03:35:41;;;;;;;15.93;9.93;;;;;;;12.05;95.55;94297.19;5012089;28;20180;-75
2023/04/18 03:38:06;;;;;;;18.73;13.27;;;;;;;11.98;95.56;94280.69;5010736;28;20425;-75
2023/04/18 03:40:32;;;;;;;14.67;10.83;;;;;;;11.93;95.45;94277.97;5011718;28;20220;-75
2023/04/18 03:42:58;;;;;;;19.17;11.47;;;;;;;12.06;95.72;94292.72;5011518;28;20230;-75
2023/04/18 03:45:24;;;;;;;15.87;11.33;;;;;;;11.97;95.45;94283.56;5011945;28;20176;-74
2023/04/18 03:47:49;;;;;;;20.07;12.40;;;;;;;11.93;95.87;94288.53;5011745;28;20179;-75
2023/04/18 03:50:15;;;;;;;18.40;12.73;;;;;;;11.92;96.25;94292.19;5010989;28;20410;-75
2023/04/18 03:52:40;;;;;;;17.20;12.73;;;;;;;11.93;96.10;94290.34;5011233;28;20508;-75
2023/04/18 03:55:06;;;;;;;19.57;14.63;;;;;;;11.81;96.46;94289.56;5010133;28;20410;-75
2023/04/18 03:57:31;;;;;;;18.95;13.32;;;;;;;11.77;96.46;94283.13;5010470;28;20421;-75
2023/04/18 03:59:57;;;;;;;17.47;11.43;;;;;;;11.88;96.11;94288.41;5012119;28;20172;-75
2023/04/18 04:02:23;;;;;;;19.20;14.27;;;;;;;11.93;96.09;94293.00;5010935;28;20403;-75
2023/04/18 04:04:48;;;;;;;17.15;13.13;;;;;;;11.96;95.02;94292.50;5009831;28;20489;-75
2023/04/18 04:07:14;;;;;;;15.27;11.70;;;;;;;11.96;94.78;94285.41;5011514;28;20192;-75
2023/04/18 04:09:39;;;;;;;15.80;10.93;;;;;;;11.95;94.77;94288.25;5010714;28;20864;-75
2023/04/18 04:12:05;;;;;;;18.40;12.02;;;;;;;11.81;95.05;94281.66;5010005;28;20520;-75
2023/04/18 04:14:31;;;;;;;12.87;9.47;;;;;;;11.89;95.63;94295.28;5011020;28;20589;-76
2023/04/18 04:16:56;;;;;;;16.27;12.40;;;;;;;11.79;96.20;94299.53;5008306;28;20410;-76
2023/04/18 04:19:22;;;;;;;13.43;10.43;;;;;;;11.44;96.39;94286.34;5010257;28;20464;-75
2023/04/18 04:21:47;;;;;;;12.55;10.55;;;;;;;11.42;97.87;94302.41;5009691;28;20406;-75
2023/04/18 04:24:12;;;;;;;13.00;10.80;;;;;;;11.37;97.93;94302.28;5009616;28;20497;-74
2023/04/18 04:26:38;;;;;;;14.90;10.70;;;;;;;11.37;98.05;94298.84;5010354;28;20418;-73
2023/04/18 04:29:04;;;;;;;12.13;9.20;;;;;;;11.42;98.25;94307.66;5010353;28;20177;-73
2023/04/18 04:31:30;;;;;;;12.13;8.77;;;;;;;11.47;98.05;94307.78;5008905;28;20211;-74
2023/04/18 04:33:56;;;;;;;12.18;9.48;;;;;;;11.49;97.58;94305.75;5009369;28;20450;-73
2023/04/18 04:36:23;;;;;;;12.10;9.03;;;;;;;11.51;97.82;94300.22;5010554;28;21355;-73
2023/04/18 04:38:48;;;;;;;12.07;8.77;;;;;;;11.59;97.78;94305.94;5010697;28;20262;-74
2023/04/18 04:41:15;;;;;;;14.40;11.32;;;;;;;11.64;97.72;94310.53;5009964;28;20453;-73
2023/04/18 04:43:41;;;;;;;13.20;11.13;;;;;;;11.53;98.33;94309.50;5008545;28;20946;-74
2023/04/18 04:46:07;;;;;;;12.47;9.37;;;;;;;11.47;98.36;94318.34;5009555;28;20157;-74
2023/04/18 04:48:33;;;;;;;14.50;9.47;;;;;;;11.44;98.34;94323.25;5009480;28;20234;-73
2023/04/18 04:50:59;;;;;;;15.73;11.20;;;;;;;11.47;97.98;94315.69;5006830;28;20932;-73
2023/04/18 04:53:29;;;;;;;11.03;9.10;;;;;;;11.59;97.55;94320.94;5009678;28;20176;-73
2023/04/18 04:55:54;;;;;;;14.17;9.40;;;;;;;11.60;96.50;94323.38;5010057;28;20174;-74
2023/04/18 04:58:20;;;;;;;13.98;10.90;;;;;;;11.62;96.58;94323.94;5009556;28;20406;-73
2023/04/18 05:00:46;;;;;;;14.70;11.40;;;;;;;11.59;96.36;94327.03;5009312;28;20414;-73
2023/04/18 05:03:11;;;;;;;13.98;11.63;;;;;;;11.62;97.92;94316.03;5008804;28;20413;-74
2023/04/18 05:05:36;;;;;;;12.90;10.17;;;;;;;11.80;95.66;94330.16;5010741;28;20226;-74
2023/04/18 05:08:03;;;;;;;15.30;9.13;;;;;;;11.58;95.08;94312.28;5025813;28;20554;-74
2023/04/18 05:10:29;;;;;;;11.20;8.90;;;;;;;11.72;95.91;94336.56;5025552;28;20238;-75
2023/04/18 05:12:55;;;;;;;13.67;9.07;;;;;;;11.87;96.19;94315.81;5007619;28;20654;-75
2023/04/18 05:15:22;;;;;;;13.50;9.83;;;;;;;11.83;94.28;94337.63;4991998;28;20264;-75
2023/04/18 05:17:47;;;;;;;13.00;9.00;;;;;;;11.81;95.24;94334.41;4991112;28;20173;-75
2023/04/18 05:20:13;;;;;;;13.97;9.30;;;;;;;11.83;95.05;94337.63;4990848;28;20231;-75
2023/04/18 05:22:38;;;;;;;13.27;9.20;;;;;;;11.89;94.13;94339.31;4991216;28;20174;-75
2023/04/18 05:25:04;;;;;;;13.03;9.13;;;;;;;11.83;94.36;94337.63;4991087;28;20289;-75
2023/04/18 05:27:29;;;;;;;14.93;10.07;;;;;;;11.80;95.07;94335.44;4991344;28;20157;-74
2023/04/18 05:29:55;;;;;;;14.53;10.83;;;;;;;11.64;95.84;94342.97;4990666;28;20462;-75
2023/04/18 05:32:20;;;;;;;15.07;11.52;;;;;;;11.76;96.16;94335.09;4996395;28;21372;-74
2023/04/18 05:34:47;;;;;;;15.43;12.07;;;;;;;11.90;94.64;94340.94;5010536;28;20460;-74
2023/04/18 05:37:12;;;;;;;15.20;11.98;;;;;;;11.87;94.27;94344.00;5010704;28;20465;-74
2023/04/18 05:39:38;;;;;;;15.43;12.47;;;;;;;11.94;94.21;94342.06;5010412;28;20851;-74
2023/04/18 05:42:04;;;;;;;17.45;13.05;;;;;;;11.95;94.35;94343.66;5012675;28;20407;-74
2023/04/18 05:44:29;;;;;;;16.63;12.40;;;;;;;12.06;94.36;94351.56;5014789;28;20998;-74
2023/04/18 05:46:55;;;;;;;16.13;12.05;;;;;;;12.15;93.03;94348.56;5013304;28;20402;-75
2023/04/18 05:49:20;;;;;;;14.00;9.87;;;;;;;12.10;92.62;94341.38;5013520;28;20183;-74
2023/04/18 05:51:48;;;;;;;16.70;10.87;;;;;;;12.17;93.31;94349.13;5013569;28;20192;-74
2023/04/18 05:54:16;;;;;;;14.47;9.63;;;;;;;12.23;91.79;94349.00;5013688;28;20671;-74
2023/04/18 05:56:42;;;;;;;14.27;9.43;;;;;;;12.24;92.36;94344.53;5013858;28;20645;-74
2023/04/18 05:59:07;;;;;;;14.47;9.87;;;;;;;12.08;91.62;94317.84;5013377;28;20184;-74
2023/04/18 06:01:33;;;;;;;13.57;9.73;;;;;;;12.31;92.37;94345.19;5013358;28;20156;-74
2023/04/18 06:03:58;;;;;;;14.00;9.83;;;;;;;12.19;91.15;94318.06;5013578;28;20176;-74
2023/04/18 06:06:24;;;;;;;17.67;9.83;;;;;;;12.40;91.33;94341.97;5013591;28;20176;-75
2023/04/18 06:08:50;;;;;;;15.20;10.30;;;;;;;12.46;90.83;94356.84;5013286;28;20311;-74
2023/04/18 06:11:15;;;;;;;18.70;10.50;;;;;;;12.43;91.25;94356.53;5013378;28;20312;-74
2023/04/18 06:13:41;;;;;;;14.93;9.93;;;;;;;12.47;90.38;94357.66;5013824;28;20176;-74
2023/04/18 06:16:07;;;;;;;15.57;8.87;;;;;;;12.52;89.96;94359.59;5013654;28;20177;-74
2023/04/18 06:18:32;;;;;;;13.77;9.30;;;;;;;12.35;89.88;94323.41;5013411;28;20169;-75
2023/04/18 06:20:58;;;;;;;14.30;9.90;;;;;;;12.58;89.63;94342.81;5013267;28;20613;-74
2023/04/18 06:23:24;;;;;;;16.90;10.80;;;;;;;12.53;90.00;94350.66;5013006;28;20179;-74
2023/04/18 06:25:49;;;;;;;13.73;9.53;;;;;;;12.51;90.43;94347.44;5012962;28;20188;-74
2023/04/18 06:28:15;;;;;;;16.20;10.20;;;;;;;12.33;89.94;94324.66;5013329;28;20172;-75
2023/04/18 06:30:40;;;;;;;12.30;8.47;;;;;;;12.57;90.00;94347.28;5013065;28;20258;-75
2023/04/18 06:33:09;;;;;;;16.50;10.10;;;;;;;12.50;89.58;94343.19;5011832;28;20180;-75
2023/04/18 06:35:36;;;;;;;14.23;9.10;;;;;;;12.36;89.73;94321.56;5012953;28;20638;-75
2023/04/18 06:38:03;;;;;;;13.27;9.23;;;;;;;12.53;89.24;94346.19;5013007;28;20544;-75
2023/04/18 06:40:28;;;;;;;13.93;9.43;;;;;;;12.18;90.11;94330.44;5012134;28;20337;-75
2023/04/18 06:42:54;;;;;;;14.37;9.03;;;;;;;12.23;91.06;94338.44;5012740;28;20188;-75
2023/04/18 06:45:19;;;;;;;14.07;9.57;;;;;;;12.08;91.05;94322.31;5013020;28;20161;-75
2023/04/18 06:47:46;;;;;;;12.67;8.60;;;;;;;12.39;90.54;94353.53;5012558;28;20224;-75
2023/04/18 06:50:12;;;;;;;13.87;8.77;;;;;;;12.32;89.09;94350.25;5012700;28;20200;-74
2023/04/18 06:52:42;;;;;;;12.83;8.83;;;;;;;12.42;89.30;94355.72;5011756;28;20662;-75
2023/04/18 06:55:09;;;;;;;13.30;9.40;;;;;;;12.30;88.42;94346.22;5007555;28;20184;-75
2023/04/18 06:57:36;;;;;;;13.87;8.80;;;;;;;12.32;89.62;94346.81;4991786;28;20173;-75
2023/04/18 07:00:02;;;;;;;19.77;8.93;;;;;;;12.32;89.47;94352.09;5007921;28;20180;-75
2023/04/18 07:02:28;;;;;;;14.23;9.80;;;;;;;12.46;89.23;94362.13;5012462;28;20199;-75
2023/04/18 07:04:53;;;;;;;14.43;9.80;;;;;;;12.66;88.08;94360.94;5012018;28;20648;-75
2023/04/18 07:07:19;;;;;;;13.10;9.27;;;;;;;12.83;86.56;94364.41;5004508;28;20169;-75
2023/04/18 07:09:44;;;;;;;16.53;9.60;;;;;;;12.81;85.61;94363.84;5005758;28;20185;-75
2023/04/18 07:12:10;;;;;;;14.27;9.00;;;;;;;12.74;85.16;94357.91;5010540;28;20287;-75
2023/04/18 07:14:35;;;;;;;14.33;10.10;;;;;;;12.74;85.44;94355.25;5012365;28;20187;-74
2023/04/18 07:17:00;;;;;;;16.30;10.00;;;;;;;12.75;86.34;94356.88;4996813;28;20235;-76
2023/04/18 07:19:26;;;;;;;13.57;9.43;;;;;;;12.87;87.00;94356.81;4995737;28;20196;-75
2023/04/18 07:21:51;;;;;;;14.97;9.70;;;;;;;12.95;86.16;94359.09;5012222;28;20176;-75
2023/04/18 07:24:16;;;;;;;14.07;9.13;;;;;;;12.94;85.42;94365.41;5012063;28;20699;-76
2023/04/18 07:26:42;;;;;;;15.00;9.67;;;;;;;12.93;85.98;94364.59;5000147;28;20181;-76
2023/04/18 07:29:08;;;;;;;14.47;9.77;;;;;;;13.06;86.47;94368.81;4992399;28;20187;-74
2023/04/18 07:31:33;;;;;;;14.17;10.00;;;;;;;13.05;85.15;94351.34;5002158;28;20287;-76
2023/04/18 07:33:59;;;;;;;12.13;7.83;;;;;;;13.26;83.21;94371.81;5011938;28;20184;-75
2023/04/18 07:36:25;;;;;;;12.50;8.27;;;;;;;13.29;82.33;94367.88;5012165;28;20255;-75
2023/04/18 07:38:50;;;;;;;12.43;8.73;;;;;;;13.46;82.11;94371.34;5009421;28;20228;-75
2023/04/18 07:41:16;;;;;;;11.80;8.20;;;;;;;13.51;80.41;94371.41;4992812;28;20256;-76
2023/04/18 07:43:43;;;;;;;12.90;7.67;;;;;;;13.41;80.06;94348.25;5001603;28;20683;-76
2023/04/18 07:46:09;;;;;;;11.70;8.17;;;;;;;13.67;79.47;94377.72;5005948;28;20256;-76
2023/04/18 07:48:34;;;;;;;11.17;8.23;;;;;;;13.60;79.90;94362.03;5001433;28;20274;-75
2023/04/18 07:51:00;;;;;;;11.77;7.77;;;;;;;13.65;79.61;94362.13;5011600;28;20211;-74
2023/04/18 07:53:25;;;;;;;13.03;7.67;;;;;;;13.79;78.73;94379.25;5010554;28;20287;-75
2023/04/18 07:55:53;;;;;;;10.80;7.53;;;;;;;13.80;78.03;94380.06;5011412;28;20180;-75
2023/04/18 07:58:18;;;;;;;16.00;7.80;;;;;;;13.80;77.88;94385.34;5011221;28;20196;-75
2023/04/18 08:00:44;;;;;;;12.77;7.20;;;;;;;13.77;77.39;94389.28;5009064;28;20272;-75
2023/04/18 08:03:10;;;;;;;9.17;6.70;;;;;;;13.71;76.40;94397.38;5010377;28;20271;-75
2023/04/18 08:05:40;;;;;;;7.77;5.80;;;;;;;13.53;75.99;94387.84;5010495;28;20181;-75
2023/04/18 08:08:07;;;;;;;9.37;6.63;;;;;;;13.50;75.90;94390.97;5011252;28;20168;-75
2023/04/18 08:10:33;;;;;;;10.03;6.53;;;;;;;13.47;76.36;94389.63;5010714;28;20696;-74
2023/04/18 08:12:59;;;;;;;7.63;5.60;;;;;;;13.46;75.48;94388.00;5003075;28;20185;-75
2023/04/18 08:15:26;;;;;;;10.03;6.50;;;;;;;13.50;76.51;94394.41;5011132;28;20180;-75
2023/04/18 08:17:51;;;;;;;10.13;6.33;;;;;;;13.58;76.05;94396.66;5010473;28;20192;-75
2023/04/18 08:20:17;;;;;;;11.70;6.47;;;;;;;13.43;76.11;94367.31;5025509;28;20180;-75
2023/04/18 08:22:42;;;;;;;13.33;7.00;;;;;;;13.71;77.80;94384.97;5010412;28;20164;-75
2023/04/18 08:25:08;;;;;;;10.80;6.80;;;;;;;13.88;76.91;94385.75;5010325;28;20569;-75
2023/04/18 08:27:33;;;;;;;10.23;7.17;;;;;;;14.02;75.15;94391.50;5024222;28;20226;-75
2023/04/18 08:29:59;;;;;;;10.90;6.00;;;;;;;14.07;73.59;94394.22;5008543;28;20172;-75
2023/04/18 08:32:24;;;;;;;9.17;5.87;;;;;;;14.08;71.68;94392.38;5009513;28;20316;-75
2023/04/18 08:34:50;;;;;;;9.83;5.83;;;;;;;14.14;74.73;94394.84;5010171;28;20266;-75
2023/04/18 08:37:15;;;;;;;7.13;5.00;;;;;;;14.38;75.79;94386.69;5010198;28;20189;-75
2023/04/18 08:39:41;;;;;;;6.83;4.20;;;;;;;14.60;68.23;94401.59;5010135;28;20224;-75
2023/04/18 08:42:09;;;;;;;10.33;5.50;;;;;;;14.61;68.12;94394.44;5010122;28;20184;-75
2023/04/18 08:44:36;;;;;;;8.20;5.53;;;;;;;14.69;68.81;94394.00;5010199;28;20183;-75
2023/04/18 08:47:02;;;;;;;7.87;5.73;;;;;;;14.53;69.96;94363.09;5010127;28;20191;-75
2023/04/18 08:49:27;;;;;;;6.10;4.60;;;;;;;14.73;70.26;94361.44;5010199;28;20192;-75
2023/04/18 08:51:53;;;;;;;7.87;5.40;;;;;;;15.07;68.32;94385.91;5010333;28;20203;-75
2023/04/18 08:54:19;;;;;;;7.93;4.97;;;;;;;15.22;68.40;94384.50;5010473;28;20747;-75
2023/04/18 08:56:45;;;;;;;6.43;4.57;;;;;;;15.31;64.93;94394.38;5011110;28;20153;-75
2023/04/18 08:59:12;;;;;;;5.75;4.57;;;;;;;15.36;64.74;94362.59;5010100;28;20176;-75
2023/04/18 09:01:58;;;;;;;5.20;3.92;;;;;;;15.78;63.91;94394.53;5010242;28;20178;-75
2023/04/18 09:04:39;;;;;;;6.07;3.95;;;;;;;15.98;62.42;94393.91;5010173;28;20618;-75
2023/04/18 09:07:09;;;;;;;5.68;4.05;;;;;;;16.03;61.76;94383.28;5010218;28;20558;-75
2023/04/18 09:09:51;;;;;;;9.75;4.32;;;;;;;16.14;62.40;94387.63;5010100;28;20195;-75
2023/04/18 09:12:21;;;;;;;8.52;4.53;;;;;;;16.08;60.11;94396.63;5009916;28;20196;-75
2023/04/18 09:14:50;;;;;;;3.95;3.38;;;;;;;16.17;58.83;94399.59;5010181;28;20181;-75
2023/04/18 09:17:30;;;;;;;4.50;3.90;;;;;;;15.97;58.90;94391.50;5012497;28;20167;-75
2023/04/18 09:19:57;;;;;;;5.53;3.60;;;;;;;15.86;61.30;94390.63;5013855;28;20176;-75
2023/04/18 09:22:22;;;;;;;5.65;3.42;;;;;;;15.94;59.20;94386.69;5013613;28;20180;-75
2023/04/18 09:24:54;;;;;;;7.10;4.60;;;;;;;16.03;60.27;94390.47;5013803;28;20171;-75
2023/04/18 09:27:21;;;;;;;5.78;4.38;;;;;;;16.07;60.41;94397.69;5013640;28;20156;-75
2023/04/18 09:29:53;;;;;;;7.05;4.32;;;;;;;16.01;64.44;94382.75;5013312;28;20250;-75
2023/04/18 09:32:25;;;;;;;7.30;4.50;;;;;;;15.95;66.59;94378.47;5013284;28;20236;-74
2023/04/18 09:34:56;;;;;;;7.27;4.10;;;;;;;15.50;68.46;94384.19;5013270;28;20664;-75
2023/04/18 09:37:23;;;;;;;5.07;3.83;;;;;;;15.20;69.20;94381.28;5013706;28;20177;-75
2023/04/18 09:39:49;;;;;;;6.63;3.60;;;;;;;14.71;70.03;94376.78;5013283;28;20224;-75
2023/04/18 09:42:15;;;;;;;5.10;3.57;;;;;;;14.60;71.17;94376.94;5013412;28;20184;-75
2023/04/18 09:45:20;;;;;;;5.73;3.30;;;;;;;14.47;71.60;94379.94;5013100;28;20191;-75
2023/04/18 09:47:46;;;;;;;4.43;1.90;;;;;;;14.38;71.26;94387.47;4971891;28;20200;-75
2023/04/18 09:50:11;;;;;;;2.73;2.00;;;;;;;14.25;72.19;94367.47;4972006;28;20182;-75
2023/04/18 09:52:41;;;;;;;2.77;1.90;;;;;;;14.34;71.90;94379.25;4991150;28;20220;-75
2023/04/18 09:55:09;;;;;;;3.80;1.53;;;;;;;14.29;72.33;94381.00;5013162;28;20155;-75
2023/04/18 09:57:39;;;;;;;1.80;1.60;;;;;;;14.18;73.72;94369.47;5013037;28;20176;-75
2023/04/18 10:00:26;;;;;;;3.03;2.00;;;;;;;14.25;74.39;94369.31;5013656;28;20559;-75
2023/04/18 10:02:59;;;;;;;1.67;1.50;;;;;;;14.35;74.29;94383.50;5013367;28;20164;-75
2023/04/18 10:05:30;;;;;;;1.97;1.60;;;;;;;14.48;73.57;94374.41;5012801;28;20207;-75
2023/04/18 10:07:56;;;;;;;1.90;1.70;;;;;;;14.65;73.38;94369.03;5012946;28;20222;-75
2023/04/18 10:10:22;;;;;;;2.50;1.93;;;;;;;14.75;73.68;94368.34;5012892;28;20165;-75
2023/04/18 10:12:49;;;;;;;3.00;2.20;;;;;;;14.86;72.74;94368.22;5012770;28;20295;-75
2023/04/18 10:15:16;;;;;;;1.80;1.70;;;;;;;14.97;73.38;94371.75;5012713;28;20654;-75
2023/04/18 10:17:53;;;;;;;5.47;2.37;;;;;;;15.09;72.44;94365.28;5011353;28;20629;-75
2023/04/18 10:20:23;;;;;;;2.77;2.20;;;;;;;15.21;71.09;94367.78;5012625;28;20203;-75
2023/04/18 10:22:50;;;;;;;3.40;2.20;;;;;;;15.30;71.22;94366.28;4994475;28;20172;-75
2023/04/18 10:25:33;;;;;;;4.03;2.37;;;;;;;15.33;71.73;94365.75;4993752;28;20177;-74
2023/04/18 10:28:03;;;;;;;3.30;2.42;;;;;;;15.11;71.46;94370.31;5010959;28;20260;-75
2023/04/18 10:31:01;;;;;;;2.97;2.20;;;;;;;15.04;71.97;94357.28;5012269;28;20175;-75
2023/04/18 10:33:34;;;;;;;3.45;2.78;;;;;;;15.10;71.90;94358.13;5011869;28;20203;-75
2023/04/18 10:36:19;;;;;;;4.10;2.23;;;;;;;14.94;71.05;94361.69;5012242;28;20218;-75
2023/04/18 10:38:58;;;;;;;1.90;1.70;;;;;;;14.85;70.88;94353.38;5012156;28;20176;-75
2023/04/18 10:41:29;;;;;;;3.63;2.43;;;;;;;14.86;71.79;94357.63;5012886;28;20172;-75
2023/04/18 10:44:10;;;;;;;4.43;2.57;;;;;;;14.95;69.91;94369.38;5012297;28;20165;-75
2023/04/18 10:46:39;;;;;;;2.57;2.00;;;;;;;14.74;69.31;94364.91;5027444;28;20186;-75
2023/04/18 10:49:15;;;;;;;4.27;2.17;;;;;;;14.62;69.18;94337.72;5012179;28;20573;-75
2023/04/18 10:51:43;;;;;;;3.00;2.20;;;;;;;14.82;69.51;94361.81;5011949;28;20196;-75
2023/04/18 10:54:10;;;;;;;2.87;2.30;;;;;;;14.99;68.81;94365.16;5012021;28;20649;-75
2023/04/18 10:56:36;;;;;;;3.17;1.90;;;;;;;15.14;68.43;94366.34;5011997;28;20172;-75
2023/04/18 10:59:02;;;;;;;3.53;1.73;;;;;;;15.20;69.15;94355.56;5011900;28;20188;-75
2023/04/18 11:01:31;;;;;;;3.17;1.83;;;;;;;15.41;69.53;94353.88;5011881;28;20179;-75
2023/04/18 11:03:58;;;;;;;2.30;2.10;;;;;;;15.53;67.04;94362.47;5011875;28;20172;-75
2023/04/18 11:06:26;;;;;;;2.65;1.75;;;;;;;15.58;66.05;94337.84;5010392;28;20180;-74
2023/04/18 11:09:08;;;;;;;3.78;2.70;;;;;;;15.87;67.35;94352.41;5012651;28;20176;-75
2023/04/18 11:11:34;;;;;;;4.03;1.90;;;;;;;16.04;68.11;94350.38;5012529;28;20192;-75
2023/04/18 11:13:59;;;;;;;3.90;1.50;;;;;;;15.98;63.91;94353.28;5012690;28;20184;-75
2023/04/18 11:16:30;;;;;;;2.17;1.80;;;;;;;15.74;64.94;94331.63;5012662;28;20172;-74
2023/04/18 11:18:56;;;;;;;2.73;1.70;;;;;;;15.67;65.45;94334.47;5012376;28;20274;-76
2023/04/18 11:21:28;;;;;;;4.00;2.00;;;;;;;15.78;65.66;94349.41;5012573;28;20180;-75
2023/04/18 11:23:57;;;;;;;3.63;1.70;;;;;;;15.82;64.71;94331.94;5012733;28;20163;-76